Time,TemperatureF,DewpointF,PressureIn,WindDirection,WindDirectionDegrees,WindSpeedMPH,WindSpeedGustMPH,Humidity,HourlyPrecipIn,Conditions,Clouds,dailyrainin,SoftwareType,DateUTC
2013-02-03 00:14:00,34.2,33.7,29.88,ENE,67,0.0,-999.0,98,-99.99,,,0.00,Acu-Link.com,2013-02-03 05:14:00,
2013-02-03 00:30:00,33.8,33.3,29.89,West,270,0.0,-999.0,98,-99.99,,,0.00,Acu-Link.com,2013-02-03 05:30:00,
2013-02-03 00:46:00,33.6,33.1,29.89,NNW,337,0.0,-999.0,98,-99.99,,,0.00,Acu-Link.com,2013-02-03 05:46:00,
2013-02-03 01:03:00,33.3,32.8,29.89,NNW,337,0.0,-999.0,98,-99.99,,,0.00,Acu-Link.com,2013-02-03 06:03:00,
2013-02-03 01:20:00,32.9,32.4,29.88,South,180,0.0,-999.0,98,-99.99,,,0.00,Acu-Link.com,2013-02-03 06:20:00,
2013-02-03 01:37:00,33.1,32.6,29.88,SSE,157,0.0,-999.0,98,-99.99,,,0.00,Acu-Link.com,2013-02-03 06:37:00,
2013-02-03 01:52:00,32.9,32.4,29.88,NNW,337,0.0,-999.0,98,-99.99,,,0.00,Acu-Link.com,2013-02-03 06:52:00,
2013-02-03 02:07:00,32.5,32.0,29.88,SSE,157,0.0,-999.0,98,-99.99,,,0.00,Acu-Link.com,2013-02-03 07:07:00,
2013-02-03 02:22:00,31.8,31.3,29.88,SSW,202,0.0,-999.0,98,-99.99,,,0.00,Acu-Link.com,2013-02-03 07:22:00,
2013-02-03 02:38:00,31.6,31.1,29.87,SSW,202,0.0,-999.0,98,-99.99,,,0.00,Acu-Link.com,2013-02-03 07:38:00,
2013-02-03 02:54:00,30.9,30.4,29.87,SSW,202,0.0,-999.0,98,-99.99,,,0.00,Acu-Link.com,2013-02-03 07:54:00,
2013-02-03 03:09:00,30.2,29.7,29.87,SSW,202,0.0,-999.0,98,-99.99,,,0.00,Acu-Link.com,2013-02-03 08:09:00,
2013-02-03 03:25:00,29.8,29.3,29.87,SSW,202,0.0,-999.0,98,-99.99,,,0.00,Acu-Link.com,2013-02-03 08:25:00,
2013-02-03 03:41:00,29.8,29.3,29.86,SSW,202,0.0,-999.0,98,-99.99,,,0.00,Acu-Link.com,2013-02-03 08:41:00,
2013-02-03 03:57:00,29.7,29.2,29.85,SSW,202,0.0,-999.0,98,-99.99,,,0.00,Acu-Link.com,2013-02-03 08:57:00,
2013-02-03 04:13:00,29.8,29.3,29.85,WSW,247,0.0,-999.0,98,-99.99,,,0.00,Acu-Link.com,2013-02-03 09:13:00,
2013-02-03 04:30:00,30.0,29.5,29.85,West,270,0.0,-999.0,98,-99.99,,,0.00,Acu-Link.com,2013-02-03 09:30:00,
2013-02-03 04:45:00,30.0,29.5,29.84,South,180,0.0,-999.0,98,-99.99,,,0.00,Acu-Link.com,2013-02-03 09:45:00,
2013-02-03 05:00:00,30.2,29.7,29.83,SSE,157,0.0,-999.0,98,-99.99,,,0.00,Acu-Link.com,2013-02-03 10:00:00,
2013-02-03 05:15:00,30.4,29.9,29.83,West,270,2.2,-999.0,98,-99.99,,,0.00,Acu-Link.com,2013-02-03 10:15:00,
2013-02-03 05:30:00,31.3,30.8,29.82,South,180,0.0,-999.0,98,-99.99,,,0.00,Acu-Link.com,2013-02-03 10:30:00,
2013-02-03 05:46:00,31.8,31.3,29.81,South,180,0.0,-999.0,98,-99.99,,,0.00,Acu-Link.com,2013-02-03 10:46:00,
2013-02-03 06:02:00,32.0,31.5,29.81,South,180,0.0,-999.0,98,-99.99,,,0.00,Acu-Link.com,2013-02-03 11:02:00,
2013-02-03 06:20:00,32.7,32.2,29.81,SSE,157,1.1,-999.0,98,-99.99,,,0.00,Acu-Link.com,2013-02-03 11:20:00,
2013-02-03 06:39:00,32.4,31.9,29.81,WSW,247,1.1,-999.0,98,-99.99,,,0.00,Acu-Link.com,2013-02-03 11:39:00,
2013-02-03 06:55:00,32.7,32.2,29.81,SE,135,0.0,-999.0,98,-99.99,,,0.00,Acu-Link.com,2013-02-03 11:55:00,
2013-02-03 07:11:00,32.7,32.2,29.82,SE,135,0.0,-999.0,98,-99.99,,,0.00,Acu-Link.com,2013-02-03 12:11:00,
2013-02-03 07:26:00,32.7,32.2,29.81,SSE,157,0.0,-999.0,98,-99.99,,,0.00,Acu-Link.com,2013-02-03 12:26:00,
2013-02-03 07:43:00,32.4,31.9,29.83,SSE,157,2.2,-999.0,98,-99.99,,,0.00,Acu-Link.com,2013-02-03 12:43:00,
2013-02-03 07:58:00,32.0,31.5,29.82,SE,135,0.0,-999.0,98,-99.99,,,0.00,Acu-Link.com,2013-02-03 12:58:00,
2013-02-03 08:13:00,31.8,31.3,29.82,SSE,157,2.2,-999.0,98,-99.99,,,0.00,Acu-Link.com,2013-02-03 13:13:00,
2013-02-03 08:28:00,31.6,31.1,29.81,SE,135,1.7,-999.0,98,-99.99,,,0.00,Acu-Link.com,2013-02-03 13:28:00,
2013-02-03 08:43:00,31.6,31.1,29.82,South,180,0.0,-999.0,98,-99.99,,,0.00,Acu-Link.com,2013-02-03 13:43:00,
2013-02-03 09:00:00,32.0,31.5,29.82,West,270,3.7,-999.0,98,-99.99,,,0.00,Acu-Link.com,2013-02-03 14:00:00,
2013-02-03 09:16:00,32.9,32.4,29.82,NW,315,2.7,-999.0,98,-99.99,,,0.00,Acu-Link.com,2013-02-03 14:16:00,
2013-02-03 09:31:00,33.6,33.1,29.81,WSW,247,4.2,-999.0,98,-99.99,,,0.00,Acu-Link.com,2013-02-03 14:31:00,
2013-02-03 09:47:00,34.2,33.7,29.81,South,180,2.2,-999.0,98,-99.99,,,0.00,Acu-Link.com,2013-02-03 14:47:00,
2013-02-03 10:02:00,35.2,34.7,29.81,ESE,112,2.7,-999.0,98,-99.99,,,0.00,Acu-Link.com,2013-02-03 15:02:00,
2013-02-03 10:17:00,37.8,37.3,29.82,SE,135,2.2,-999.0,98,-99.99,,,0.00,Acu-Link.com,2013-02-03 15:17:00,
2013-02-03 10:32:00,39.7,39.2,29.81,WNW,292,1.7,-999.0,98,-99.99,,,0.00,Acu-Link.com,2013-02-03 15:32:00,
2013-02-03 10:47:00,41.0,40.5,29.81,West,270,2.7,-999.0,98,-99.99,,,0.00,Acu-Link.com,2013-02-03 15:47:00,
2013-02-03 11:03:00,42.6,42.1,29.82,WSW,247,3.7,-999.0,98,-99.99,,,0.00,Acu-Link.com,2013-02-03 16:03:00,
2013-02-03 11:19:00,43.7,43.2,29.81,ESE,112,3.7,-999.0,98,-99.99,,,0.00,Acu-Link.com,2013-02-03 16:19:00,
2013-02-03 11:34:00,45.3,44.8,29.80,SE,135,4.7,-999.0,98,-99.99,,,0.00,Acu-Link.com,2013-02-03 16:34:00,
2013-02-03 11:49:00,46.4,45.9,29.80,SE,135,1.7,-999.0,98,-99.99,,,0.00,Acu-Link.com,2013-02-03 16:49:00,
2013-02-03 12:04:00,50.2,44.9,29.80,WNW,292,1.1,-999.0,82,-99.99,,,0.00,Acu-Link.com,2013-02-03 17:04:00,
2013-02-03 12:20:00,52.5,39.4,29.79,West,270,2.2,-999.0,61,-99.99,,,0.00,Acu-Link.com,2013-02-03 17:20:00,
2013-02-03 12:36:00,53.4,37.6,29.79,NW,315,4.7,-999.0,55,-99.99,,,0.00,Acu-Link.com,2013-02-03 17:36:00,
2013-02-03 12:53:00,54.7,38.4,29.78,SW,225,2.2,-999.0,54,-99.99,,,0.00,Acu-Link.com,2013-02-03 17:53:00,
2013-02-03 13:09:00,54.7,36.9,29.78,SW,225,2.2,-999.0,51,-99.99,,,0.00,Acu-Link.com,2013-02-03 18:09:00,
2013-02-03 13:25:00,53.2,35.0,29.78,SSE,157,1.7,-999.0,50,-99.99,,,0.00,Acu-Link.com,2013-02-03 18:25:00,
2013-02-03 13:42:00,54.7,35.4,29.78,SSE,157,4.2,-999.0,48,-99.99,,,0.00,Acu-Link.com,2013-02-03 18:42:00,
2013-02-03 13:57:00,55.9,35.4,29.77,ENE,67,4.2,-999.0,46,-99.99,,,0.00,Acu-Link.com,2013-02-03 18:57:00,
2013-02-03 14:15:00,54.3,34.0,29.78,West,270,4.2,-999.0,46,-99.99,,,0.00,Acu-Link.com,2013-02-03 19:15:00,
2013-02-03 14:30:00,55.6,35.2,29.78,WSW,247,2.7,-999.0,46,-99.99,,,0.00,Acu-Link.com,2013-02-03 19:30:00,
2013-02-03 14:45:00,55.4,33.9,29.78,WNW,292,2.7,-999.0,44,-99.99,,,0.00,Acu-Link.com,2013-02-03 19:45:00,
2013-02-03 15:01:00,55.4,35.0,29.78,East,90,1.7,-999.0,46,-99.99,,,0.00,Acu-Link.com,2013-02-03 20:01:00,
2013-02-03 15:16:00,55.2,33.7,29.78,West,270,3.7,-999.0,44,-99.99,,,0.00,Acu-Link.com,2013-02-03 20:16:00,
2013-02-03 15:32:00,55.4,35.0,29.79,SE,135,1.7,-999.0,46,-99.99,,,0.00,Acu-Link.com,2013-02-03 20:32:00,
2013-02-03 15:50:00,52.9,32.7,29.79,SSW,202,1.7,-999.0,46,-99.99,,,0.00,Acu-Link.com,2013-02-03 20:50:00,
2013-02-03 16:06:00,54.3,34.0,29.80,ESE,112,0.0,-999.0,46,-99.99,,,0.00,Acu-Link.com,2013-02-03 21:06:00,
2013-02-03 16:21:00,54.5,35.2,29.81,SSW,202,2.7,-999.0,48,-99.99,,,0.00,Acu-Link.com,2013-02-03 21:21:00,
2013-02-03 16:36:00,53.8,34.6,29.81,WSW,247,2.2,-999.0,48,-99.99,,,0.00,Acu-Link.com,2013-02-03 21:36:00,
2013-02-03 16:52:00,52.7,33.6,29.81,South,180,0.0,-999.0,48,-99.99,,,0.00,Acu-Link.com,2013-02-03 21:52:00,
2013-02-03 17:09:00,51.1,34.6,29.81,NNE,22,0.0,-999.0,53,-99.99,,,0.00,Acu-Link.com,2013-02-03 22:09:00,
2013-02-03 17:27:00,50.4,34.4,29.81,SSE,157,1.7,-999.0,54,-99.99,,,0.00,Acu-Link.com,2013-02-03 22:27:00,
2013-02-03 17:43:00,48.7,34.6,29.82,SE,135,3.2,-999.0,58,-99.99,,,0.00,Acu-Link.com,2013-02-03 22:43:00,
2013-02-03 17:59:00,47.5,34.7,29.83,North,0,2.2,-999.0,61,-99.99,,,0.00,Acu-Link.com,2013-02-03 22:59:00,
2013-02-03 18:15:00,46.2,34.3,29.84,NW,315,2.7,-999.0,63,-99.99,,,0.00,Acu-Link.com,2013-02-03 23:15:00,
2013-02-03 18:31:00,45.1,34.4,29.85,NW,315,3.2,-999.0,66,-99.99,,,0.00,Acu-Link.com,2013-02-03 23:31:00,
2013-02-03 18:47:00,43.3,34.5,29.86,NW,315,2.7,-999.0,71,-99.99,,,0.00,Acu-Link.com,2013-02-03 23:47:00,
2013-02-03 19:02:00,42.4,34.4,29.87,SSW,202,2.2,-999.0,73,-99.99,,,0.00,Acu-Link.com,2013-02-04 00:02:00,
2013-02-03 19:17:00,41.4,34.4,29.89,NNW,337,0.0,-999.0,76,-99.99,,,0.00,Acu-Link.com,2013-02-04 00:17:00,
2013-02-03 19:32:00,40.6,34.3,29.89,NW,315,0.0,-999.0,78,-99.99,,,0.00,Acu-Link.com,2013-02-04 00:32:00,
2013-02-03 19:48:00,40.1,34.4,29.90,NNE,22,2.2,-999.0,80,-99.99,,,0.00,Acu-Link.com,2013-02-04 00:48:00,
2013-02-03 20:04:00,39.4,34.4,29.90,West,270,0.0,-999.0,82,-99.99,,,0.00,Acu-Link.com,2013-02-04 01:04:00,
2013-02-03 20:19:00,38.7,34.0,29.90,SW,225,0.0,-999.0,83,-99.99,,,0.00,Acu-Link.com,2013-02-04 01:19:00,
2013-02-03 20:35:00,37.9,35.0,29.91,SE,135,0.0,-999.0,89,-99.99,,,0.00,Acu-Link.com,2013-02-04 01:35:00,
2013-02-03 20:51:00,37.2,34.3,29.91,WSW,247,0.0,-999.0,89,-99.99,,,0.00,Acu-Link.com,2013-02-04 01:51:00,
2013-02-03 21:06:00,36.7,34.9,29.91,SW,225,0.0,-999.0,93,-99.99,,,0.00,Acu-Link.com,2013-02-04 02:06:00,
2013-02-03 21:21:00,36.1,35.6,29.90,NNW,337,0.0,-999.0,98,-99.99,,,0.00,Acu-Link.com,2013-02-04 02:21:00,
2013-02-03 21:37:00,35.8,35.3,29.89,West,270,0.0,-999.0,98,-99.99,,,0.00,Acu-Link.com,2013-02-04 02:37:00,
2013-02-03 21:53:00,35.6,35.1,29.90,North,0,0.0,-999.0,98,-99.99,,,0.00,Acu-Link.com,2013-02-04 02:53:00,
2013-02-03 22:08:00,34.9,34.4,29.89,WNW,292,0.0,-999.0,98,-99.99,,,0.00,Acu-Link.com,2013-02-04 03:08:00,
2013-02-03 22:43:00,34.3,33.8,29.90,West,270,0.0,-999.0,98,-99.99,,,0.00,Acu-Link.com,2013-02-04 03:43:00,
2013-02-03 22:58:00,33.4,32.9,29.90,North,0,0.0,-999.0,98,-99.99,,,0.00,Acu-Link.com,2013-02-04 03:58:00,
2013-02-03 23:13:00,32.7,32.2,29.89,WNW,292,3.2,-999.0,98,-99.99,,,0.00,Acu-Link.com,2013-02-04 04:13:00,
2013-02-03 23:30:00,32.7,32.2,29.89,NW,315,0.0,-999.0,98,-99.99,,,0.00,Acu-Link.com,2013-02-04 04:30:00,
2013-02-03 23:46:00,32.0,31.5,29.90,NNW,337,0.0,-999.0,98,-99.99,,,0.00,Acu-Link.com,2013-02-04 04:46:00,